Friday, October 19, 2018, 9:56 PM GMT
Back to Local

CYZX, Greenwood, N. S.

Location: , , Canada Lat: 44.983
Local Time: 9:56 PM GMT (21:56 GMT) Lon: -64.917
Time Zone: GMT Elev: 91 ft

Show me the last for .
Show Coded

Time T Td Feel RH Dir Speed Gust Alt SLP Vis Weather Sky Remarks
2018-10-19 21:00 43 32 40 65 200° 5 - 30.04 30.04 15 OVC035 None
2018-10-19 20:00 43 32 37 65 230° 9 - 30.05 30.05 15 BKN040 OVC060 None
2018-10-19 19:00 43 32 34 65 250° 12 20 30.05 30.06 15 SCT030 BKN060 None
2018-10-19 18:00 43 32 34 65 270° 14 20 30.07 30.08 15 BKN030 BKN060 None
2018-10-19 17:00 43 30 34 60 260° 13 20 30.08 30.08 15 FEW040 SCT075 BKN250 None
2018-10-19 16:00 41 25 30 52 270° 20 29 30.11 30.11 15 FEW040 FEW250 None
2018-10-19 15:00 39 23 29 51 280° 16 22 30.11 30.11 15 FEW040 None
2018-10-19 14:00 37 23 27 55 280° 18 - 30.12 30.12 15 FEW040 FEW250 None
2018-10-19 13:00 36 25 24 64 310° 17 24 30.13 30.13 15 FEW040 FEW090 FEW250 None
2018-10-19 12:00 34 21 22 59 290° 15 23 30.12 30.13 15 FEW040 FEW090 None
2018-10-19 11:00 34 18 22 50 290° 13 21 30.11 30.11 15 FEW040 FEW090 None
2018-10-19 10:00 32 21 20 63 280° 14 20 30.10 30.11 15 FEW040 None
2018-10-19 09:00 34 23 24 64 290° 15 - 30.09 30.09 15 CLR None
2018-10-19 08:00 34 25 23 69 280° 9 17 30.08 30.08 15 CLR None
2018-10-19 07:00 34 23 22 64 290° 13 23 30.06 30.07 15 CLR None
2018-10-19 06:00 32 25 18 74 300° 15 28 30.05 30.06 15 CLR None
2018-10-19 05:00 34 25 20 69 310° 23 29 30.05 30.05 15 FEW040 None
2018-10-19 04:00 36 28 23 74 310° 16 28 30.03 30.04 15 FEW040 None
2018-10-19 03:00 36 32 22 86 290° 21 31 30.03 30.03 15 SCT060 None
2018-10-19 02:00 37 36 25 93 300° 22 28 30.02 30.03 15 SCT060 None
2018-10-19 01:00 39 36 27 86 300° 28 35 30.00 30.01 15 BKN060 None
2018-10-19 00:00 39 37 27 93 290° 23 30 29.96 29.96 15 BKN060 None
2018-10-18 23:00 39 28 28 64 300° 25 - 29.93 29.93 15 BKN060 None
2018-10-18 22:00 39 30 26 69 300° 23 38 29.89 29.89 15 BKN055 BKN070 None

Support USWX by starting your Amazon purchase here.